Time;durP1;ratioP1;P1;durP2;ratioP2;P2;SDS_P1;SDS_P2;PMS_P1;PMS_P2;Temp;Humidity;BMP_temperature;BMP_pressure;BME280_temperature;BME280_humidity;BME280_pressure;Samples;Min_cycle;Max_cycle;Signal;HPM_P1;HPM_P2
2021/11/07 00:04:07;;;;;;;23.20;13.30;;;;;;;3.13;79.95;99345.61;235521;1193;24120;-73
2021/11/07 00:13:36;;;;;;;20.90;12.60;;;;;;;3.12;79.72;99325.03;235796;1197;26046;-72
2021/11/07 00:18:48;;;;;;;21.00;12.70;;;;;;;3.07;79.67;99306.55;235877;1192;22546;-74
2021/11/07 00:24:09;;;;;;;22.20;12.80;;;;;;;3.03;79.80;99301.31;235914;1199;22582;-75
2021/11/07 00:29:16;;;;;;;23.60;13.50;;;;;;;2.98;79.78;99307.95;235697;1199;25007;-73
2021/11/07 00:34:46;;;;;;;21.20;12.30;;;;;;;2.93;79.76;99311.16;235643;1193;25326;-74
2021/11/07 00:40:01;;;;;;;20.90;13.10;;;;;;;2.90;79.88;99299.86;235527;1193;24015;-72
2021/11/07 00:45:31;;;;;;;19.60;11.60;;;;;;;2.87;79.65;99281.34;235715;1198;22446;-73
2021/11/07 00:50:46;;;;;;;22.40;12.70;;;;;;;2.83;79.75;99269.89;235774;1187;24047;-73
2021/11/07 00:56:37;;;;;;;24.00;14.40;;;;;;;2.76;79.68;99263.35;235820;1192;25097;-74
2021/11/07 01:01:18;;;;;;;21.60;12.30;;;;;;;2.70;79.61;99257.83;235706;1199;22497;-74
2021/11/07 01:06:21;;;;;;;22.20;13.60;;;;;;;2.67;79.74;99250.57;235786;1193;24888;-72
2021/11/07 01:11:24;;;;;;;23.80;14.20;;;;;;;2.61;79.67;99244.02;235611;1193;24092;-74
2021/11/07 01:16:28;;;;;;;28.40;15.30;;;;;;;2.52;79.59;99236.56;235621;1199;24089;-73
2021/11/07 01:21:35;;;;;;;22.80;12.30;;;;;;;2.48;79.73;99226.23;235320;1200;22493;-72
2021/11/07 01:26:41;;;;;;;21.50;12.90;;;;;;;2.46;80.12;99221.89;235667;1199;23982;-73
2021/11/07 01:31:45;;;;;;;22.30;13.70;;;;;;;2.48;80.41;99221.80;235402;1193;22428;-73
2021/11/07 01:36:52;;;;;;;22.90;13.00;;;;;;;2.50;80.32;99215.22;235660;1193;25097;-74
2021/11/07 01:42:03;;;;;;;20.90;12.60;;;;;;;2.51;80.44;99214.64;235329;1186;24216;-72
2021/11/07 01:47:06;;;;;;;20.70;12.30;;;;;;;2.54;80.57;99213.63;235379;1200;25015;-74
2021/11/07 01:52:11;;;;;;;19.80;12.70;;;;;;;2.56;80.78;99205.71;236045;1199;22514;-72
2021/11/07 01:57:25;;;;;;;16.80;10.70;;;;;;;2.61;80.72;99191.40;235729;1199;26278;-73
2021/11/07 02:02:35;;;;;;;15.30;10.00;;;;;;;2.65;80.66;99181.12;235515;1199;23001;-72
2021/11/07 02:07:39;;;;;;;16.10;10.00;;;;;;;2.69;80.92;99178.16;235567;1200;25231;-73
2021/11/07 02:12:43;;;;;;;16.80;10.70;;;;;;;2.76;81.05;99180.44;235395;1200;24075;-75
2021/11/07 02:17:48;;;;;;;18.70;11.00;;;;;;;2.81;81.27;99169.14;235871;1191;22443;-74
2021/11/07 02:22:51;;;;;;;15.70;9.80;;;;;;;2.83;81.20;99155.95;235446;1199;22426;-71
2021/11/07 02:28:03;;;;;;;14.60;10.20;;;;;;;2.82;81.05;99163.33;235473;1193;24043;-74
2021/11/07 02:33:06;;;;;;;17.60;10.70;;;;;;;2.79;80.91;99166.76;235885;1192;22546;-72
2021/11/07 02:38:09;;;;;;;16.60;10.50;;;;;;;2.75;80.82;99163.16;236103;1199;22443;-73
2021/11/07 02:43:12;;;;;;;14.60;9.40;;;;;;;2.71;80.70;99158.73;235263;1196;25064;-72
2021/11/07 02:48:15;;;;;;;14.80;10.10;;;;;;;2.67;80.69;99157.69;235523;1193;24079;-71
2021/11/07 02:53:18;;;;;;;14.30;9.10;;;;;;;2.65;80.72;99155.92;234831;1193;22442;-74
2021/11/07 02:58:34;;;;;;;14.10;9.50;;;;;;;2.62;80.75;99147.61;235467;1192;25322;-73
2021/11/07 03:03:37;;;;;;;14.10;8.50;;;;;;;2.60;80.72;99141.84;235414;1192;24020;-72
2021/11/07 03:08:42;;;;;;;15.80;8.70;;;;;;;2.58;80.70;99142.81;235109;1200;22420;-73
2021/11/07 03:13:48;;;;;;;14.40;9.40;;;;;;;2.56;80.78;99143.48;235205;1200;25277;-74
2021/11/07 03:18:50;;;;;;;13.00;9.10;;;;;;;2.53;80.70;99137.93;235252;1193;24020;-72
2021/11/07 03:23:53;;;;;;;16.30;9.20;;;;;;;2.49;80.74;99126.23;235131;1200;24015;-71
2021/11/07 03:29:05;;;;;;;12.50;8.80;;;;;;;2.46;80.77;99120.23;235425;1199;24060;-71
2021/11/07 03:34:24;;;;;;;14.00;8.80;;;;;;;2.43;80.80;99122.28;235635;1184;22436;-74
2021/11/07 03:39:51;;;;;;;13.40;8.70;;;;;;;2.40;81.10;99114.59;235593;1199;24126;-72
2021/11/07 03:44:54;;;;;;;11.30;8.30;;;;;;;2.41;81.55;99117.23;235250;1200;22991;-73
2021/11/07 03:49:58;;;;;;;13.70;8.40;;;;;;;2.46;81.46;99123.30;235411;1194;22440;-72
2021/11/07 03:55:01;;;;;;;11.00;7.50;;;;;;;2.51;81.60;99111.01;235614;1184;22583;-71
2021/11/07 04:00:15;;;;;;;11.80;7.20;;;;;;;2.58;81.62;99101.06;235707;1199;22493;-74
2021/11/07 04:05:36;;;;;;;13.10;8.50;;;;;;;2.63;81.53;99088.54;235723;1195;24044;-74
2021/11/07 04:10:38;;;;;;;15.40;8.40;;;;;;;2.65;81.80;99075.35;235774;1199;25080;-74
2021/11/07 04:15:43;;;;;;;11.00;7.60;;;;;;;2.68;81.88;99060.25;235874;1199;24085;-74
2021/11/07 04:20:45;;;;;;;11.30;6.90;;;;;;;2.70;81.81;99047.06;235990;1193;25372;-72
2021/11/07 04:25:48;;;;;;;11.50;7.10;;;;;;;2.75;81.93;99033.48;235929;1199;22560;-74
2021/11/07 04:30:50;;;;;;;12.50;7.50;;;;;;;2.80;81.56;99025.40;235747;1199;22443;-74
2021/11/07 04:35:54;;;;;;;10.50;6.90;;;;;;;2.82;81.44;99016.73;235876;1192;24115;-72
2021/11/07 04:40:56;;;;;;;13.00;8.60;;;;;;;2.82;81.32;99008.44;235882;1184;24072;-72
2021/11/07 04:45:59;;;;;;;13.90;8.30;;;;;;;2.80;81.03;99005.22;235451;1199;22774;-71
2021/11/07 04:51:04;;;;;;;12.70;8.60;;;;;;;2.75;80.81;99003.52;235933;1199;22443;-72
2021/11/07 04:56:07;;;;;;;14.20;8.10;;;;;;;2.69;80.86;98989.75;235838;1194;22465;-72
2021/11/07 05:01:23;;;;;;;12.60;8.50;;;;;;;2.63;81.00;98981.74;235559;1194;24216;-72
2021/11/07 05:06:26;;;;;;;12.40;8.70;;;;;;;2.61;81.12;98984.31;235700;1193;22454;-72
2021/11/07 05:11:30;;;;;;;12.80;7.70;;;;;;;2.60;81.16;98977.33;235702;1199;25061;-73
2021/11/07 05:16:35;;;;;;;10.20;6.50;;;;;;;2.60;80.98;98955.95;235781;1193;24126;-72
2021/11/07 05:21:39;;;;;;;8.80;6.20;;;;;;;2.62;81.26;98953.73;235695;1199;24113;-74
2021/11/07 05:26:41;;;;;;;9.40;6.10;;;;;;;2.65;81.22;98948.34;235955;1193;24013;-74
2021/11/07 05:31:44;;;;;;;8.20;5.60;;;;;;;2.71;81.13;98955.08;235803;1199;24047;-74
2021/11/07 05:36:48;;;;;;;9.30;6.20;;;;;;;2.78;81.10;98957.39;235866;1199;25191;-74
2021/11/07 05:41:54;;;;;;;9.80;6.60;;;;;;;2.82;80.97;98949.75;235090;1192;24121;-74
2021/11/07 05:47:02;;;;;;;9.60;6.50;;;;;;;2.82;80.80;98937.90;235638;1193;24057;-73
2021/11/07 05:52:05;;;;;;;9.40;5.80;;;;;;;2.83;80.82;98929.77;235529;1199;22564;-74
2021/11/07 05:57:08;;;;;;;9.10;5.30;;;;;;;2.84;80.90;98915.41;235735;1177;22461;-73
2021/11/07 06:02:17;;;;;;;10.70;5.90;;;;;;;2.87;80.87;98906.41;235682;1193;24139;-74
2021/11/07 06:07:40;;;;;;;10.10;6.30;;;;;;;2.90;80.88;98912.66;235460;1199;24228;-72
2021/11/07 06:12:44;;;;;;;11.30;6.70;;;;;;;2.93;80.65;98905.68;235564;1199;22450;-73
2021/11/07 06:17:47;;;;;;;9.60;6.10;;;;;;;2.97;80.53;98908.98;235633;1199;25398;-74
2021/11/07 06:22:50;;;;;;;9.50;5.80;;;;;;;3.07;80.75;98932.89;235319;1200;25168;-73
2021/11/07 06:27:55;;;;;;;8.00;5.80;;;;;;;3.26;80.88;98904.60;235518;1199;22454;-73
2021/11/07 06:32:58;;;;;;;9.00;6.10;;;;;;;3.43;80.45;98901.32;235587;1196;24089;-73
2021/11/07 06:38:01;;;;;;;11.20;7.40;;;;;;;3.59;80.12;98900.42;235150;1199;22520;-72
2021/11/07 06:43:05;;;;;;;10.60;6.60;;;;;;;3.70;79.87;98884.64;235560;1193;26309;-73
2021/11/07 06:48:08;;;;;;;10.60;6.60;;;;;;;3.86;79.53;98870.85;235829;1199;24028;-72
2021/11/07 06:53:17;;;;;;;12.10;7.80;;;;;;;4.11;79.27;98863.70;235778;1192;22531;-75
2021/11/07 06:58:21;;;;;;;12.30;7.40;;;;;;;4.40;78.68;98854.96;235867;1199;24111;-74
2021/11/07 07:03:23;;;;;;;12.00;7.30;;;;;;;4.64;78.19;98852.55;235817;1199;24057;-73
2021/11/07 07:08:33;;;;;;;9.70;6.10;;;;;;;4.90;78.34;98859.54;235654;1199;22421;-73
2021/11/07 07:14:03;;;;;;;8.90;5.50;;;;;;;5.19;77.71;98858.98;235378;1196;24129;-73
2021/11/07 07:34:32;;;;;;;8.60;5.40;;;;;;;5.88;75.85;98882.02;235666;1199;24063;-73
2021/11/07 07:39:35;;;;;;;8.20;6.00;;;;;;;5.87;75.65;98890.14;235953;1194;25224;-73
2021/11/07 07:44:52;;;;;;;8.40;5.90;;;;;;;5.95;75.15;98876.11;235618;1193;22424;-71
2021/11/07 07:50:18;;;;;;;9.80;6.70;;;;;;;6.20;74.53;98858.42;235849;1196;24041;-71
2021/11/07 07:55:21;;;;;;;8.80;6.40;;;;;;;6.49;73.89;98848.41;235297;1200;24072;-71
2021/11/07 08:00:27;;;;;;;9.00;5.90;;;;;;;6.66;73.42;98843.95;235809;1199;22522;-73
2021/11/07 08:05:30;;;;;;;9.20;6.60;;;;;;;6.66;72.80;98845.34;235824;1196;22445;-73
2021/11/07 08:10:33;;;;;;;9.70;6.40;;;;;;;6.65;73.09;98839.48;235765;1199;24011;-72
2021/11/07 08:15:49;;;;;;;7.90;5.60;;;;;;;6.71;72.35;98822.84;235918;1197;22568;-72
2021/11/07 08:21:12;;;;;;;9.60;6.30;;;;;;;6.70;72.17;98817.29;235893;1193;25316;-73
2021/11/07 08:26:16;;;;;;;9.20;5.90;;;;;;;6.78;72.63;98808.31;235935;1199;22458;-70
2021/11/07 08:31:23;;;;;;;8.40;5.80;;;;;;;7.09;72.98;98806.05;235904;1199;23668;-72
2021/11/07 08:36:34;;;;;;;9.90;5.80;;;;;;;7.50;70.70;98788.95;235735;1184;24024;-73
2021/11/07 08:41:44;;;;;;;8.70;6.30;;;;;;;7.75;69.50;98770.64;235073;1200;24007;-73
2021/11/07 09:08:17;;;;;;;7.50;5.30;;;;;;;7.70;68.66;98751.02;235718;1193;24088;-73
2021/11/07 09:13:19;;;;;;;8.10;5.70;;;;;;;8.06;68.69;98750.66;235647;1199;23959;-73
2021/11/07 09:18:26;;;;;;;8.40;5.60;;;;;;;8.32;67.23;98742.82;235379;1199;25276;-74
2021/11/07 09:23:42;;;;;;;7.70;5.20;;;;;;;8.36;66.78;98742.34;235470;1193;25054;-73
2021/11/07 09:29:08;;;;;;;6.90;5.20;;;;;;;8.41;66.63;98745.45;235458;1195;22422;-74
2021/11/07 09:39:47;;;;;;;7.60;5.20;;;;;;;8.48;66.81;98727.77;235243;1200;22401;-74
2021/11/07 09:44:44;;;;;;;8.40;5.80;;;;;;;8.54;66.89;98721.17;235414;1192;25336;-73
2021/11/07 09:50:06;;;;;;;7.30;5.70;;;;;;;8.63;66.57;98697.30;236023;1199;24133;-75
2021/11/07 09:55:09;;;;;;;8.90;5.90;;;;;;;8.73;66.66;98687.08;235126;1200;23048;-73
2021/11/07 10:00:20;;;;;;;8.50;6.40;;;;;;;8.86;66.17;98668.34;235589;1199;24095;-73
2021/11/07 10:05:26;;;;;;;8.70;6.60;;;;;;;8.97;66.38;98660.78;235237;1200;22550;-74
2021/11/07 10:10:33;;;;;;;8.50;5.70;;;;;;;9.03;65.34;98643.04;235161;1200;22446;-73
2021/11/07 10:20:47;;;;;;;9.10;6.10;;;;;;;9.05;64.46;98617.43;235590;1194;22464;-73
2021/11/07 10:31:09;;;;;;;7.10;5.60;;;;;;;9.08;61.40;98627.06;235593;1198;24072;-71
2021/11/07 10:47:12;;;;;;;7.70;5.80;;;;;;;8.89;61.85;98600.84;235076;1200;24033;-71
2021/11/07 10:52:31;;;;;;;8.30;6.30;;;;;;;8.71;62.67;98598.82;235837;1198;24066;-73
2021/11/07 10:57:58;;;;;;;6.80;5.10;;;;;;;8.68;63.13;98583.66;235905;1199;24031;-74
2021/11/07 11:03:16;;;;;;;8.50;5.70;;;;;;;8.83;62.97;98576.27;235651;1199;22487;-71
2021/11/07 11:08:26;;;;;;;7.10;5.30;;;;;;;9.10;61.33;98571.09;235633;1199;24023;-72
2021/11/07 11:30:09;;;;;;;6.30;5.50;;;;;;;9.38;59.39;98552.02;236870;1199;25172;-74
2021/11/07 11:45:41;;;;;;;7.60;5.70;;;;;;;9.40;60.09;98541.89;235086;1193;24089;-73
2021/11/07 11:56:29;;;;;;;8.50;6.50;;;;;;;9.83;59.42;98515.97;235374;1199;22431;-73
2021/11/07 12:01:41;;;;;;;9.20;7.10;;;;;;;9.92;59.80;98511.23;235771;1199;24078;-74
2021/11/07 12:06:49;;;;;;;7.90;6.60;;;;;;;9.93;59.16;98502.08;235806;1199;22457;-74
2021/11/07 12:11:58;;;;;;;9.90;7.10;;;;;;;9.87;59.84;98495.81;235900;1197;24337;-74
2021/11/07 12:17:07;;;;;;;9.40;6.90;;;;;;;9.71;59.92;98482.83;235861;1199;22445;-73
2021/11/07 12:22:22;;;;;;;8.90;6.80;;;;;;;9.54;60.57;98472.98;235300;1193;24056;-74
2021/11/07 12:27:30;;;;;;;8.80;6.50;;;;;;;9.45;60.57;98464.25;235139;1193;24042;-74
2021/11/07 12:32:39;;;;;;;7.70;5.90;;;;;;;9.35;59.92;98451.06;235749;1199;26160;-73
2021/11/07 12:43:17;;;;;;;8.70;5.90;;;;;;;9.29;58.59;98428.48;235863;1197;24027;-73
2021/11/07 12:48:49;;;;;;;6.30;4.90;;;;;;;9.28;58.10;98421.91;235300;1192;24055;-73
2021/11/07 12:54:06;;;;;;;6.80;4.70;;;;;;;9.29;58.30;98396.36;235971;1198;25115;-73
2021/11/07 12:59:12;;;;;;;7.30;5.00;;;;;;;9.28;57.68;98394.39;235747;1199;22440;-74
2021/11/07 13:04:16;;;;;;;7.90;4.30;;;;;;;9.23;57.85;98391.52;235616;1193;25041;-75
2021/11/07 13:09:21;;;;;;;6.50;4.60;;;;;;;9.16;57.41;98389.95;235735;1199;22531;-73
2021/11/07 13:14:45;;;;;;;6.80;4.70;;;;;;;9.12;57.69;98385.64;235203;1200;22679;-74
2021/11/07 13:25:55;;;;;;;8.10;5.60;;;;;;;9.00;58.04;98369.90;235703;1192;22577;-72
2021/11/07 13:31:21;;;;;;;8.20;5.40;;;;;;;8.93;58.58;98375.52;235685;1199;25012;-74
2021/11/07 13:36:24;;;;;;;8.80;5.90;;;;;;;8.83;59.05;98392.24;235713;1192;24172;-74
2021/11/07 13:41:27;;;;;;;8.40;5.90;;;;;;;8.75;59.36;98393.89;235732;1198;24018;-73
2021/11/07 13:46:36;;;;;;;9.00;6.20;;;;;;;8.69;59.46;98384.85;235597;1199;24596;-74
2021/11/07 13:52:01;;;;;;;8.70;6.80;;;;;;;8.64;59.62;98378.84;235417;1199;24117;-73
2021/11/07 13:57:04;;;;;;;10.20;6.40;;;;;;;8.57;60.02;98365.63;235768;1193;22522;-73
2021/11/07 14:02:26;;;;;;;9.00;6.10;;;;;;;8.52;60.09;98358.86;235746;1198;24065;-73
2021/11/07 14:07:35;;;;;;;9.70;6.60;;;;;;;8.47;60.45;98361.63;235844;1192;22465;-74
2021/11/07 14:12:41;;;;;;;8.70;6.60;;;;;;;8.46;60.75;98353.85;235467;1193;24100;-74
2021/11/07 14:17:47;;;;;;;8.50;6.80;;;;;;;8.44;61.06;98343.29;235744;1199;22478;-75
2021/11/07 14:23:03;;;;;;;8.70;6.60;;;;;;;8.43;61.08;98346.64;235916;1194;22452;-71
2021/11/07 14:28:14;;;;;;;9.80;6.80;;;;;;;8.43;61.19;98354.77;235466;1199;24108;-71
2021/11/07 14:33:42;;;;;;;9.10;6.30;;;;;;;8.42;61.46;98362.56;235663;1193;24078;-74
2021/11/07 14:39:42;;;;;;;12.40;8.60;;;;;;;8.42;61.74;98355.36;235631;1199;22467;-74
2021/11/07 14:55:32;;;;;;;9.80;7.10;;;;;;;8.39;62.35;98355.48;235480;1199;22486;-74
2021/11/07 15:00:59;;;;;;;13.10;8.30;;;;;;;8.38;62.39;98349.59;235782;1193;24164;-73
2021/11/07 15:06:57;;;;;;;13.10;8.30;;;;;;;8.35;62.80;98349.77;235937;1197;22547;-73
2021/11/07 15:11:52;;;;;;;13.40;8.70;;;;;;;8.32;62.88;98346.96;235949;1199;22446;-73
2021/11/07 15:17:36;;;;;;;12.60;8.40;;;;;;;8.30;63.32;98343.89;235473;1186;24035;-72
2021/11/07 15:22:43;;;;;;;12.10;8.40;;;;;;;8.25;63.24;98342.26;235636;1199;24126;-74
2021/11/07 15:28:03;;;;;;;10.80;7.90;;;;;;;8.20;63.00;98348.06;235658;1199;24987;-73
2021/11/07 15:33:22;;;;;;;14.00;8.90;;;;;;;8.15;63.03;98341.87;235437;1193;25171;-75
2021/11/07 15:38:31;;;;;;;11.70;8.00;;;;;;;8.09;62.96;98354.57;235718;1192;22409;-74
2021/11/07 15:43:35;;;;;;;12.10;8.30;;;;;;;8.01;62.88;98354.48;235554;1199;24021;-73
2021/11/07 15:48:40;;;;;;;13.50;8.90;;;;;;;7.95;63.11;98356.30;236179;1199;24194;-72
2021/11/07 15:53:57;;;;;;;11.80;8.10;;;;;;;7.91;63.14;98361.20;235735;1199;24053;-74
2021/11/07 16:05:00;;;;;;;13.90;8.20;;;;;;;7.81;63.50;98364.13;235549;1193;24583;-71
2021/11/07 16:10:09;;;;;;;14.90;9.50;;;;;;;7.77;63.80;98365.10;235865;1199;24085;-71
2021/11/07 16:15:23;;;;;;;12.60;8.00;;;;;;;7.74;63.93;98372.64;235608;1185;24076;-71
2021/11/07 16:20:27;;;;;;;12.10;8.50;;;;;;;7.76;63.72;98380.09;235578;1193;24916;-73
2021/11/07 16:25:30;;;;;;;11.40;7.70;;;;;;;7.78;63.65;98387.60;235726;1192;24101;-73
2021/11/07 16:30:33;;;;;;;12.30;7.50;;;;;;;7.78;63.50;98380.72;235898;1199;25056;-73
2021/11/07 16:36:12;;;;;;;12.40;8.20;;;;;;;7.77;63.44;98379.98;235633;1199;24050;-71
2021/11/07 16:41:18;;;;;;;13.10;7.90;;;;;;;7.77;63.42;98389.69;235054;1200;24063;-74
2021/11/07 16:46:23;;;;;;;12.00;7.50;;;;;;;7.76;63.45;98390.23;235842;1199;23982;-73
2021/11/07 16:51:30;;;;;;;14.30;8.70;;;;;;;7.75;63.42;98390.23;235626;1192;24089;-75
2021/11/07 16:56:34;;;;;;;13.60;8.10;;;;;;;7.75;63.29;98389.45;236128;1199;22562;-73
2021/11/07 17:07:02;;;;;;;15.20;8.60;;;;;;;7.73;63.24;98392.70;235745;1199;22428;-71
2021/11/07 17:12:13;;;;;;;13.90;9.90;;;;;;;7.71;63.14;98385.63;235832;1199;22865;-74
2021/11/07 17:17:22;;;;;;;12.80;8.20;;;;;;;7.68;63.43;98389.48;235806;1198;24057;-72
2021/11/07 17:33:11;;;;;;;13.00;7.90;;;;;;;7.66;63.66;98382.79;235267;1193;22487;-73
2021/11/07 17:49:18;;;;;;;10.30;7.30;;;;;;;7.75;63.74;98395.25;235510;1199;25032;-73
2021/11/07 17:59:59;;;;;;;11.00;7.10;;;;;;;7.85;63.49;98397.77;235877;1199;24073;-72
2021/11/07 18:05:02;;;;;;;9.10;6.80;;;;;;;7.91;63.59;98406.39;235829;1199;24074;-72
2021/11/07 18:10:11;;;;;;;9.60;6.70;;;;;;;7.93;63.46;98408.49;235546;1184;24053;-74
2021/11/07 18:15:15;;;;;;;10.50;7.00;;;;;;;7.94;63.32;98412.11;235577;1192;22464;-73
2021/11/07 18:20:19;;;;;;;11.00;7.80;;;;;;;7.96;63.70;98412.42;235777;1192;24048;-72
2021/11/07 18:25:28;;;;;;;9.60;7.40;;;;;;;7.98;63.66;98413.84;235700;1199;24056;-73
2021/11/07 18:30:31;;;;;;;10.80;6.60;;;;;;;7.97;63.66;98408.92;235701;1199;24505;-71
2021/11/07 18:35:34;;;;;;;14.70;9.90;;;;;;;8.00;64.30;98412.58;235675;1177;24037;-75
2021/11/07 18:40:38;;;;;;;10.10;7.50;;;;;;;8.04;63.98;98416.63;235811;1199;22464;-73
2021/11/07 18:45:40;;;;;;;10.80;7.50;;;;;;;8.03;64.04;98425.00;235956;1199;24646;-71
2021/11/07 18:50:52;;;;;;;8.40;5.40;;;;;;;8.03;64.24;98422.38;235712;1199;24078;-74
2021/11/07 18:56:15;;;;;;;10.40;6.90;;;;;;;8.00;64.66;98422.84;235570;1193;24301;-73
2021/11/07 19:01:18;;;;;;;10.50;7.20;;;;;;;7.94;65.20;98422.20;235761;1193;25185;-73
2021/11/07 19:06:21;;;;;;;10.10;6.30;;;;;;;7.88;65.48;98426.14;235658;1192;22456;-73
2021/11/07 19:11:26;;;;;;;9.50;7.20;;;;;;;7.81;65.84;98424.48;235593;1199;24041;-71
2021/11/07 19:16:30;;;;;;;11.70;7.80;;;;;;;7.79;66.02;98423.87;235629;1199;22903;-73
2021/11/07 19:21:33;;;;;;;11.00;8.30;;;;;;;7.76;66.09;98428.41;235580;1199;24158;-74
2021/11/07 19:26:35;;;;;;;9.70;7.00;;;;;;;7.72;66.28;98437.56;235385;1200;22582;-72
2021/11/07 19:31:38;;;;;;;11.60;7.60;;;;;;;7.67;66.48;98432.27;235467;1176;24040;-72
2021/11/07 19:36:44;;;;;;;10.20;6.60;;;;;;;7.63;66.59;98440.77;235738;1199;22887;-74
2021/11/07 19:41:47;;;;;;;10.60;7.30;;;;;;;7.63;66.69;98451.06;235484;1198;24092;-72
2021/11/07 19:46:58;;;;;;;11.30;7.50;;;;;;;7.62;66.62;98453.98;235396;1192;22469;-74
2021/11/07 19:52:01;;;;;;;11.20;7.30;;;;;;;7.61;66.81;98455.45;235460;1199;22584;-74
2021/11/07 19:57:06;;;;;;;9.40;7.00;;;;;;;7.59;67.05;98457.22;235616;1198;24117;-74
2021/11/07 20:12:53;;;;;;;8.90;7.10;;;;;;;7.52;67.43;98471.42;235271;1177;24040;-71
2021/11/07 20:17:57;;;;;;;9.20;6.90;;;;;;;7.48;67.81;98481.79;235296;1200;22461;-71
2021/11/07 20:23:02;;;;;;;10.00;7.00;;;;;;;7.46;68.10;98484.54;235766;1177;25427;-75
2021/11/07 20:28:08;;;;;;;8.80;6.50;;;;;;;7.45;68.28;98478.71;235609;1193;22496;-72
2021/11/07 20:33:13;;;;;;;9.80;7.30;;;;;;;7.42;68.69;98480.12;235796;1199;22459;-72
2021/11/07 20:38:20;;;;;;;9.20;6.30;;;;;;;7.40;68.93;98482.89;236060;1192;22470;-71
2021/11/07 20:43:32;;;;;;;8.20;6.20;;;;;;;7.37;69.19;98486.39;235717;1198;22477;-73
2021/11/07 20:48:55;;;;;;;8.40;6.20;;;;;;;7.34;69.43;98489.54;235790;1184;24092;-71
2021/11/07 20:54:10;;;;;;;8.00;6.40;;;;;;;7.32;69.41;98494.77;235938;1197;24033;-73
2021/11/07 21:04:51;;;;;;;8.20;6.10;;;;;;;7.31;69.74;98506.39;235170;1193;22689;-74
2021/11/07 21:15:51;;;;;;;9.30;6.40;;;;;;;7.34;70.30;98512.45;235796;1199;23985;-72
2021/11/07 21:31:15;;;;;;;8.40;6.20;;;;;;;7.02;72.46;98496.54;235644;1199;22463;-71
2021/11/07 21:36:33;;;;;;;8.40;5.90;;;;;;;6.95;72.81;98495.93;235864;1199;24085;-73
2021/11/07 21:46:54;;;;;;;10.30;6.30;;;;;;;6.87;72.92;98494.45;235523;1199;24057;-73
2021/11/07 21:51:57;;;;;;;10.40;7.40;;;;;;;6.80;74.08;98488.35;235662;1200;23990;-73
2021/11/07 21:57:05;;;;;;;10.40;7.20;;;;;;;6.75;73.75;98490.27;235563;1192;24051;-72
2021/11/07 22:02:11;;;;;;;11.00;7.50;;;;;;;6.72;73.69;98493.42;235516;1199;22535;-74
2021/11/07 22:07:13;;;;;;;10.50;7.00;;;;;;;6.71;74.01;98498.17;235438;1193;24158;-73
2021/11/07 22:12:18;;;;;;;9.80;7.00;;;;;;;6.70;74.32;98498.90;235379;1193;25027;-75
2021/11/07 22:17:25;;;;;;;11.50;6.90;;;;;;;6.69;74.17;98500.61;235617;1191;25295;-71
2021/11/07 22:22:42;;;;;;;10.40;6.90;;;;;;;6.68;74.87;98499.48;235442;1193;24043;-73
2021/11/07 22:27:55;;;;;;;8.40;6.30;;;;;;;6.65;74.43;98502.33;235229;1200;24069;-71
2021/11/07 22:32:59;;;;;;;7.60;5.60;;;;;;;6.61;75.12;98504.83;235339;1193;24015;-73
2021/11/07 22:38:11;;;;;;;8.50;6.10;;;;;;;6.57;75.11;98508.66;235396;1199;25149;-71
2021/11/07 22:43:21;;;;;;;8.40;5.20;;;;;;;6.53;75.04;98507.94;235475;1199;24040;-73
2021/11/07 22:48:25;;;;;;;7.80;5.40;;;;;;;6.48;75.62;98504.20;235655;1199;22429;-72
2021/11/07 22:58:59;;;;;;;7.40;5.00;;;;;;;6.39;75.62;98511.02;235872;1199;23988;-72
2021/11/07 23:09:53;;;;;;;8.10;5.30;;;;;;;6.28;75.88;98508.70;235582;1199;24162;-71
2021/11/07 23:14:58;;;;;;;9.30;5.00;;;;;;;6.22;76.20;98511.73;235599;1199;22477;-73
2021/11/07 23:20:19;;;;;;;8.00;5.40;;;;;;;6.19;76.60;98514.85;235227;1200;22583;-73
2021/11/07 23:25:38;;;;;;;9.20;5.10;;;;;;;6.13;76.90;98510.60;235613;1199;25134;-73
2021/11/07 23:30:56;;;;;;;7.50;5.50;;;;;;;6.08;77.12;98512.52;235422;1199;24184;-74
2021/11/07 23:36:07;;;;;;;7.30;5.60;;;;;;;6.03;76.67;98518.58;235732;1193;22451;-73
2021/11/07 23:41:25;;;;;;;7.70;5.40;;;;;;;5.96;76.50;98522.59;235412;1199;25051;-72
2021/11/07 23:46:28;;;;;;;11.10;6.00;;;;;;;5.87;76.82;98522.77;235483;1196;25048;-72
2021/11/07 23:57:27;;;;;;;8.00;5.40;;;;;;;5.66;76.68;98523.64;234513;1200;24123;-73
